Terminal Aerodrome Forecast
Issued by NWS

Home | Current Version | Previous Version | Text Only | Print | Product List | Glossary On
Versions: 1 2 3 4 5 6 7 8 9 10 11 12
000
FTUS45 KREV 280524
TAFMMH
TAF
KMMH 280524Z 2806/2906 VRB04KT P6SM SCT250
     FM282100 25015G25KT P6SM SCT150 BKN200
     FM290400 21010G18KT P6SM SCT150 BKN250=

USA.gov is the U.S. government's official web portal to all federal, state and local government web resources and services.